Station Historical Data
Daily Summary for February 19, 2017 Units:  English    Metric   Both
« Previous Day
Next Day »
Daily Weekly Monthly Yearly Custom
  High: Low: Average:
Temperature: 45.6 °F 37.4 °F 41.4 °F
Dew Point: 43.9 °F 35.6 °F 39.5 °F
Humidity: 94 % 87 % 93 %
Wind Speed: 28.0 mph 0.0 mph 6.9 mph
Wind Gust: 28.0 mph - -
Wind:- - SSE
Pressure: 30.01 in 29.78 in -
Precipitation: 0.00 in    
Historical Graphs
 
 
Tabular Data for February 19, 2017
Time Temperature Dew Point Pressure Wind Wind Speed Wind Gust Humidity Rainfall Rate (Hourly) solar
00:03 40.2 °F 38.6 °F 29.78 in SSE 9.0 mph 13.0 mph 94 % 0.00 in 0.00 W/m2
00:08 40.2 °F 38.3 °F 29.78 in South 6.0 mph 18.0 mph 93 % 0.00 in 0.00 W/m2
00:13 40.1 °F 38.2 °F 29.78 in SSE 4.0 mph 15.0 mph 93 % 0.00 in 0.00 W/m2
00:18 40.1 °F 38.2 °F 29.79 in SSE 10.0 mph 12.0 mph 93 % 0.00 in 0.00 W/m2
00:23 40.0 °F 38.1 °F 29.79 in SE 9.0 mph 14.0 mph 93 % 0.00 in 0.00 W/m2
00:28 40.0 °F 38.1 °F 29.79 in SE 9.0 mph 11.0 mph 93 % 0.00 in 0.00 W/m2
00:33 40.0 °F 38.1 °F 29.79 in SSE 4.0 mph 9.0 mph 93 % 0.00 in 0.00 W/m2
00:38 40.0 °F 38.1 °F 29.80 in SSE 6.0 mph 14.0 mph 93 % 0.00 in 0.00 W/m2
00:43 39.9 °F 38.0 °F 29.80 in South 10.0 mph 11.0 mph 93 % 0.00 in 0.00 W/m2
00:48 39.8 °F 38.0 °F 29.81 in South 7.0 mph 9.0 mph 93 % 0.00 in 0.00 W/m2
00:53 39.8 °F 38.2 °F 29.81 in SSE 11.0 mph 13.0 mph 94 % 0.00 in 0.00 W/m2
00:58 39.7 °F 38.1 °F 29.81 in SSE 5.0 mph 12.0 mph 94 % 0.00 in 0.00 W/m2
01:03 39.6 °F 38.0 °F 29.81 in SSE 15.0 mph 15.0 mph 94 % 0.00 in 0.00 W/m2
01:08 39.6 °F 38.0 °F 29.82 in South 7.0 mph 10.0 mph 94 % 0.00 in 0.00 W/m2
01:14 39.5 °F 37.7 °F 29.82 in SSE 14.0 mph 14.0 mph 93 % 0.00 in 0.00 W/m2
01:19 39.4 °F 37.5 °F 29.83 in South 7.0 mph 9.0 mph 93 % 0.00 in 0.00 W/m2
01:24 39.3 °F 37.5 °F 29.83 in South 6.0 mph 13.0 mph 93 % 0.00 in 0.00 W/m2
01:29 39.2 °F 37.3 °F 29.83 in SSW 10.0 mph 12.0 mph 93 % 0.00 in 0.00 W/m2
01:34 39.1 °F 37.5 °F 29.83 in South 8.0 mph 15.0 mph 94 % 0.00 in 0.00 W/m2
01:44 38.7 °F 36.8 °F 29.83 in SSE 11.0 mph 16.0 mph 93 % 0.00 in 0.00 W/m2
01:49 38.6 °F 37.0 °F 29.83 in SSE 13.0 mph 16.0 mph 94 % 0.00 in 0.00 W/m2
01:54 38.4 °F 36.8 °F 29.83 in South 11.0 mph 16.0 mph 94 % 0.00 in 0.00 W/m2
01:59 38.3 °F 36.5 °F 29.83 in SSE 9.0 mph 14.0 mph 93 % 0.00 in 0.00 W/m2
02:04 38.2 °F 36.4 °F 29.83 in SSE 10.0 mph 16.0 mph 93 % 0.00 in 0.00 W/m2
02:09 38.1 °F 36.3 °F 29.83 in South 9.0 mph 13.0 mph 93 % 0.00 in 0.00 W/m2
02:14 38.0 °F 36.4 °F 29.84 in SSE 9.0 mph 15.0 mph 94 % 0.00 in 0.00 W/m2
02:19 37.9 °F 36.3 °F 29.85 in SSE 4.0 mph 15.0 mph 94 % 0.00 in 0.00 W/m2
02:24 37.9 °F 36.3 °F 29.85 in South 11.0 mph 12.0 mph 94 % 0.00 in 0.00 W/m2
02:29 37.9 °F 36.3 °F 29.85 in South 12.0 mph 14.0 mph 94 % 0.00 in 0.00 W/m2
02:34 37.8 °F 36.2 °F 29.85 in SSE 7.0 mph 9.0 mph 94 % 0.00 in 0.00 W/m2
02:39 37.7 °F 36.1 °F 29.86 in South 7.0 mph 12.0 mph 94 % 0.00 in 0.00 W/m2
02:44 37.7 °F 35.9 °F 29.86 in South 6.0 mph 16.0 mph 93 % 0.00 in 0.00 W/m2
02:49 37.7 °F 35.9 °F 29.86 in South 7.0 mph 11.0 mph 93 % 0.00 in 0.00 W/m2
02:54 37.7 °F 35.9 °F 29.86 in SSE 5.0 mph 10.0 mph 93 % 0.00 in 0.00 W/m2
02:59 37.7 °F 35.9 °F 29.86 in SSE 2.0 mph 11.0 mph 93 % 0.00 in 0.00 W/m2
03:04 37.6 °F 35.8 °F 29.86 in SSE 7.0 mph 12.0 mph 93 % 0.00 in 0.00 W/m2
03:10 37.6 °F 35.8 °F 29.86 in SE 6.0 mph 12.0 mph 93 % 0.00 in 0.00 W/m2
03:15 37.6 °F 35.8 °F 29.86 in SSE 2.0 mph 10.0 mph 93 % 0.00 in 0.00 W/m2
03:20 37.6 °F 35.8 °F 29.86 in SSE 6.0 mph 9.0 mph 93 % 0.00 in 0.00 W/m2
03:25 37.5 °F 35.7 °F 29.86 in SSE 4.0 mph 8.0 mph 93 % 0.00 in 0.00 W/m2
03:30 37.6 °F 35.8 °F 29.86 in SE 7.0 mph 11.0 mph 93 % 0.00 in 0.00 W/m2
03:35 37.5 °F 35.7 °F 29.86 in SE 2.0 mph 9.0 mph 93 % 0.00 in 0.00 W/m2
03:40 37.5 °F 35.7 °F 29.86 in SE 5.0 mph 9.0 mph 93 % 0.00 in 0.00 W/m2
03:45 37.5 °F 35.7 °F 29.86 in SE 6.0 mph 7.0 mph 93 % 0.00 in 0.00 W/m2
03:46 37.5 °F 35.7 °F 29.86 in SE 6.0 mph 6.0 mph 93 % 0.00 in 0.00 W/m2
03:51 37.5 °F 35.7 °F 29.86 in SE 7.0 mph 9.0 mph 93 % 0.00 in 0.00 W/m2
03:57 37.5 °F 35.7 °F 29.86 in SE 2.0 mph 8.0 mph 93 % 0.00 in 0.00 W/m2
04:01 37.5 °F 35.7 °F 29.86 in SSE 5.0 mph 8.0 mph 93 % 0.00 in 0.00 W/m2
04:07 37.5 °F 35.7 °F 29.86 in Calm     93 % 0.00 in 0.00 W/m2
04:12 37.4 °F 35.6 °F 29.86 in Calm     93 % 0.00 in 0.00 W/m2
04:17 37.4 °F 35.8 °F 29.86 in Calm     94 % 0.00 in 0.00 W/m2
04:22 37.4 °F 35.8 °F 29.86 in Calm     94 % 0.00 in 0.00 W/m2
04:27 37.4 °F 35.6 °F 29.86 in Calm     93 % 0.00 in 0.00 W/m2
04:32 37.4 °F 35.8 °F 29.85 in Calm     94 % 0.00 in 0.00 W/m2
04:37 37.4 °F 35.8 °F 29.85 in Calm     94 % 0.00 in 0.00 W/m2
04:42 37.4 °F 35.8 °F 29.85 in Calm     94 % 0.00 in 0.00 W/m2
04:47 37.4 °F 35.6 °F 29.85 in Calm     93 % 0.00 in 0.00 W/m2
04:52 37.4 °F 35.8 °F 29.84 in Calm     94 % 0.00 in 0.00 W/m2
04:57 37.4 °F 35.8 °F 29.84 in Calm     94 % 0.00 in 0.00 W/m2
05:02 37.4 °F 35.8 °F 29.84 in SE 6.0 mph 11.0 mph 94 % 0.00 in 0.00 W/m2
05:07 37.4 °F 35.6 °F 29.83 in SE 14.0 mph 17.0 mph 93 % 0.00 in 0.00 W/m2
05:12 37.4 °F 35.8 °F 29.84 in SE 7.0 mph 10.0 mph 94 % 0.00 in 0.00 W/m2
05:17 37.4 °F 35.6 °F 29.84 in ESE 8.0 mph 12.0 mph 93 % 0.00 in 0.00 W/m2
05:22 37.5 °F 35.7 °F 29.84 in SE 6.0 mph 6.0 mph 93 % 0.00 in 0.00 W/m2
05:27 37.5 °F 35.7 °F 29.83 in ESE 7.0 mph 8.0 mph 93 % 0.00 in 0.00 W/m2
05:32 37.5 °F 35.7 °F 29.84 in SE 7.0 mph 11.0 mph 93 % 0.00 in 0.00 W/m2
05:37 37.5 °F 35.7 °F 29.84 in ESE 2.0 mph 7.0 mph 93 % 0.00 in 0.00 W/m2
05:42 37.6 °F 35.8 °F 29.84 in ESE 9.0 mph 12.0 mph 93 % 0.00 in 0.00 W/m2
05:47 37.6 °F 35.8 °F 29.84 in SE 9.0 mph 11.0 mph 93 % 0.00 in 0.00 W/m2
05:52 37.7 °F 35.9 °F 29.84 in SE 6.0 mph 9.0 mph 93 % 0.00 in 0.00 W/m2
05:57 37.7 °F 36.1 °F 29.84 in SE 5.0 mph 8.0 mph 94 % 0.00 in 0.00 W/m2
06:02 37.8 °F 36.2 °F 29.84 in SE 11.0 mph 14.0 mph 94 % 0.00 in 0.00 W/m2
06:07 37.8 °F 36.0 °F 29.83 in ESE 6.0 mph 12.0 mph 93 % 0.00 in 0.00 W/m2
06:12 37.9 °F 36.1 °F 29.84 in Calm     93 % 0.00 in 0.00 W/m2
06:17 37.9 °F 36.1 °F 29.85 in SE 4.0 mph 8.0 mph 93 % 0.00 in 0.00 W/m2
06:22 38.0 °F 36.2 °F 29.85 in Calm     93 % 0.00 in 0.00 W/m2
06:27 38.0 °F 36.2 °F 29.85 in Calm     93 % 0.00 in 0.00 W/m2
06:32 38.1 °F 36.3 °F 29.85 in Calm   1.0 mph 93 % 0.00 in 0.00 W/m2
06:37 38.2 °F 36.4 °F 29.85 in Calm     93 % 0.00 in 0.00 W/m2
06:42 38.2 °F 36.4 °F 29.85 in Calm     93 % 0.00 in 0.00 W/m2
06:47 38.3 °F 36.5 °F 29.86 in Calm     93 % 0.00 in 0.00 W/m2
06:52 38.3 °F 36.5 °F 29.85 in Calm     93 % 0.00 in 0.00 W/m2
06:57 38.3 °F 36.5 °F 29.86 in Calm     93 % 0.00 in 5.00 W/m2
07:02 38.3 °F 36.5 °F 29.85 in Calm     93 % 0.00 in 7.00 W/m2
07:07 38.4 °F 36.6 °F 29.86 in Calm     93 % 0.00 in 12.00 W/m2
07:12 38.4 °F 36.6 °F 29.86 in Calm     93 % 0.00 in 26.00 W/m2
07:17 38.4 °F 36.8 °F 29.86 in Calm     94 % 0.00 in 60.00 W/m2
07:22 38.5 °F 36.9 °F 29.86 in Calm   1.0 mph 94 % 0.00 in 37.00 W/m2
07:27 38.5 °F 36.9 °F 29.87 in SE 6.0 mph 11.0 mph 94 % 0.00 in 47.00 W/m2
07:32 38.5 °F 36.9 °F 29.87 in SE 2.0 mph 9.0 mph 94 % 0.00 in 49.00 W/m2
07:37 38.6 °F 37.0 °F 29.87 in Calm     94 % 0.00 in 44.00 W/m2
07:42 38.7 °F 37.1 °F 29.87 in Calm     94 % 0.00 in 54.00 W/m2
07:47 38.7 °F 36.8 °F 29.87 in Calm     93 % 0.00 in 97.00 W/m2
07:52 38.8 °F 37.0 °F 29.87 in Calm     93 % 0.00 in 100.00 W/m2
07:57 38.9 °F 37.0 °F 29.87 in Calm     93 % 0.00 in 102.00 W/m2
08:02 39.0 °F 37.2 °F 29.88 in Calm     93 % 0.00 in 155.00 W/m2
08:07 39.1 °F 37.5 °F 29.87 in Calm     94 % 0.00 in 72.00 W/m2
08:12 39.2 °F 37.6 °F 29.87 in Calm     94 % 0.00 in 144.00 W/m2
08:17 39.2 °F 37.6 °F 29.88 in SSE 5.0 mph 5.0 mph 94 % 0.00 in 176.00 W/m2
08:22 39.3 °F 37.7 °F 29.88 in SSE 8.0 mph 9.0 mph 94 % 0.00 in 128.00 W/m2
08:27 39.3 °F 37.5 °F 29.88 in SSE 6.0 mph 9.0 mph 93 % 0.00 in 132.00 W/m2
08:32 39.4 °F 37.5 °F 29.88 in SSE 6.0 mph 10.0 mph 93 % 0.00 in 142.00 W/m2
08:37 39.4 °F 37.5 °F 29.88 in SSE 7.0 mph 10.0 mph 93 % 0.00 in 153.00 W/m2
08:42 39.5 °F 37.7 °F 29.88 in SSE 6.0 mph 9.0 mph 93 % 0.00 in 155.00 W/m2
08:47 39.6 °F 38.0 °F 29.88 in South 10.0 mph 10.0 mph 94 % 0.00 in 114.00 W/m2
08:52 39.5 °F 37.9 °F 29.89 in SSE 6.0 mph 9.0 mph 94 % 0.00 in 134.00 W/m2
08:57 39.5 °F 37.9 °F 29.89 in SSE 8.0 mph 9.0 mph 94 % 0.00 in 137.00 W/m2
09:02 39.6 °F 38.0 °F 29.89 in Calm   1.0 mph 94 % 0.00 in 167.00 W/m2
09:08 39.6 °F 38.0 °F 29.89 in SSE 5.0 mph 11.0 mph 94 % 0.00 in 141.00 W/m2
09:12 39.7 °F 38.1 °F 29.89 in SSE 2.0 mph 8.0 mph 94 % 0.00 in 181.00 W/m2
09:18 39.8 °F 38.2 °F 29.90 in Calm   1.0 mph 94 % 0.00 in 221.00 W/m2
09:23 40.0 °F 38.1 °F 29.90 in Calm   1.0 mph 93 % 0.00 in 188.00 W/m2
09:28 40.1 °F 38.2 °F 29.91 in Calm   1.0 mph 93 % 0.00 in 218.00 W/m2
09:30 40.1 °F 38.2 °F 29.91 in Calm   1.0 mph 93 % 0.00 in 213.00 W/m2
09:34 40.2 °F 38.6 °F 29.91 in Calm   1.0 mph 94 % 0.00 in 214.00 W/m2
09:39 40.4 °F 38.8 °F 29.91 in SSE 4.0 mph 10.0 mph 94 % 0.00 in 183.00 W/m2
09:44 40.6 °F 38.7 °F 29.92 in SSE 8.0 mph 14.0 mph 93 % 0.00 in 214.00 W/m2
09:49 40.7 °F 38.8 °F 29.91 in SE 1.0 mph 12.0 mph 93 % 0.00 in 176.00 W/m2
09:54 40.8 °F 39.2 °F 29.91 in SSE 6.0 mph 12.0 mph 94 % 0.00 in 234.00 W/m2
09:59 41.0 °F 39.4 °F 29.91 in South 10.0 mph 15.0 mph 94 % 0.00 in 260.00 W/m2
10:04 41.1 °F 39.5 °F 29.91 in SE 4.0 mph 11.0 mph 94 % 0.00 in 199.00 W/m2
10:09 41.3 °F 39.7 °F 29.91 in SSW 9.0 mph 12.0 mph 94 % 0.00 in 223.00 W/m2
10:14 41.4 °F 39.8 °F 29.91 in South 9.0 mph 14.0 mph 94 % 0.00 in 206.00 W/m2
10:19 41.5 °F 39.9 °F 29.91 in SSE 5.0 mph 14.0 mph 94 % 0.00 in 248.00 W/m2
10:24 41.5 °F 39.9 °F 29.92 in SSE 8.0 mph 16.0 mph 94 % 0.00 in 239.00 W/m2
10:29 41.6 °F 39.7 °F 29.92 in South 5.0 mph 13.0 mph 93 % 0.00 in 278.00 W/m2
10:34 41.8 °F 39.9 °F 29.92 in South 1.0 mph 14.0 mph 93 % 0.00 in 306.00 W/m2
10:39 42.0 °F 40.1 °F 29.92 in South 1.0 mph 12.0 mph 93 % 0.00 in 350.00 W/m2
10:44 42.2 °F 40.3 °F 29.92 in South 8.0 mph 16.0 mph 93 % 0.00 in 299.00 W/m2
10:49 42.5 °F 40.6 °F 29.92 in SSE 5.0 mph 13.0 mph 93 % 0.00 in 311.00 W/m2
10:54 42.7 °F 40.5 °F 29.92 in South 6.0 mph 11.0 mph 92 % 0.00 in 290.00 W/m2
10:59 42.8 °F 40.6 °F 29.94 in South 8.0 mph 11.0 mph 92 % 0.00 in 211.00 W/m2
11:04 42.9 °F 40.5 °F 29.93 in SSE 5.0 mph 9.0 mph 91 % 0.00 in 262.00 W/m2
11:09 43.0 °F 40.8 °F 29.93 in Calm   9.0 mph 92 % 0.00 in 292.00 W/m2
11:14 43.2 °F 41.0 °F 29.93 in SSE 11.0 mph 14.0 mph 92 % 0.00 in 367.00 W/m2
11:19 43.2 °F 40.8 °F 29.92 in South 5.0 mph 11.0 mph 91 % 0.00 in 308.00 W/m2
11:24 43.4 °F 41.0 °F 29.92 in SSE 1.0 mph 1.0 mph 91 % 0.00 in 241.00 W/m2
11:29 43.5 °F 40.8 °F 29.93 in Calm   1.0 mph 90 % 0.00 in 178.00 W/m2
11:34 43.5 °F 40.8 °F 29.93 in SSW 10.0 mph 12.0 mph 90 % 0.00 in 155.00 W/m2
11:44 43.6 °F 40.9 °F 29.93 in SW 8.0 mph 13.0 mph 90 % 0.00 in 134.00 W/m2
11:49 43.5 °F 40.8 °F 29.93 in South 8.0 mph 10.0 mph 90 % 0.00 in 144.00 W/m2
11:54 43.5 °F 40.8 °F 29.93 in SSW 4.0 mph 14.0 mph 90 % 0.00 in 186.00 W/m2
11:59 43.5 °F 40.8 °F 29.93 in SSE 11.0 mph 12.0 mph 90 % 0.00 in 160.00 W/m2
12:04 43.5 °F 40.8 °F 29.92 in South 7.0 mph 12.0 mph 90 % 0.00 in 162.00 W/m2
12:09 43.4 °F 40.7 °F 29.93 in SSE 4.0 mph 13.0 mph 90 % 0.00 in 158.00 W/m2
12:19 43.5 °F 40.8 °F 29.92 in SSE 7.0 mph 9.0 mph 90 % 0.00 in 134.00 W/m2
12:29 43.5 °F 40.8 °F 29.92 in South 9.0 mph 14.0 mph 90 % 0.00 in 141.00 W/m2
12:34 43.5 °F 40.8 °F 29.92 in SSE 5.0 mph 12.0 mph 90 % 0.00 in 107.00 W/m2
12:39 43.4 °F 40.7 °F 29.92 in Calm   9.0 mph 90 % 0.00 in 114.00 W/m2
12:44 43.5 °F 40.8 °F 29.92 in Calm   1.0 mph 90 % 0.00 in 114.00 W/m2
12:49 43.5 °F 40.8 °F 29.93 in Calm   10.0 mph 90 % 0.00 in 81.00 W/m2
12:54 43.4 °F 40.7 °F 29.92 in Calm   4.0 mph 90 % 0.00 in 93.00 W/m2
12:59 43.3 °F 40.6 °F 29.92 in South 13.0 mph 13.0 mph 90 % 0.00 in 102.00 W/m2
13:04 43.2 °F 40.2 °F 29.93 in South 4.0 mph 14.0 mph 89 % 0.00 in 81.00 W/m2
13:09 43.2 °F 40.2 °F 29.93 in Calm   12.0 mph 89 % 0.00 in 63.00 W/m2
13:14 43.1 °F 40.4 °F 29.93 in South 6.0 mph 12.0 mph 90 % 0.00 in 72.00 W/m2
13:19 42.9 °F 39.9 °F 29.93 in SSW 13.0 mph 20.0 mph 89 % 0.00 in 127.00 W/m2
13:24 42.6 °F 39.0 °F 29.93 in WSW 17.0 mph 24.0 mph 87 % 0.00 in 118.00 W/m2
13:29 42.4 °F 40.2 °F 29.92 in South 7.0 mph 25.0 mph 92 % 0.00 in 130.00 W/m2
13:34 42.3 °F 39.0 °F 29.92 in South 10.0 mph 26.0 mph 88 % 0.00 in 104.00 W/m2
13:39 42.0 °F 38.7 °F 29.92 in South 15.0 mph 20.0 mph 88 % 0.00 in 102.00 W/m2
13:45 41.8 °F 38.8 °F 29.92 in SSE 7.0 mph 21.0 mph 89 % 0.00 in 86.00 W/m2
13:49 41.6 °F 38.6 °F 29.91 in South 4.0 mph 15.0 mph 89 % 0.00 in 98.00 W/m2
13:52 41.5 °F 38.5 °F 29.91 in SSE 8.0 mph 12.0 mph 89 % 0.00 in 88.00 W/m2
13:57 41.5 °F 38.8 °F 29.91 in South 9.0 mph 12.0 mph 90 % 0.00 in 104.00 W/m2
14:02 41.4 °F 38.7 °F 29.91 in SE 7.0 mph 16.0 mph 90 % 0.00 in 105.00 W/m2
14:07 41.4 °F 38.7 °F 29.90 in SSE 6.0 mph 8.0 mph 90 % 0.00 in 128.00 W/m2
14:12 41.5 °F 39.1 °F 29.90 in SE 8.0 mph 14.0 mph 91 % 0.00 in 172.00 W/m2
14:17 41.6 °F 39.2 °F 29.91 in SSE 11.0 mph 12.0 mph 91 % 0.00 in 165.00 W/m2
14:22 41.8 °F 39.7 °F 29.90 in South 7.0 mph 14.0 mph 92 % 0.00 in 134.00 W/m2
14:27 42.0 °F 39.8 °F 29.90 in SE 8.0 mph 14.0 mph 92 % 0.00 in 153.00 W/m2
14:32 42.1 °F 40.0 °F 29.90 in South 11.0 mph 24.0 mph 92 % 0.00 in 121.00 W/m2
14:37 42.2 °F 40.0 °F 29.90 in South 3.0 mph 11.0 mph 92 % 0.00 in 104.00 W/m2
14:42 42.3 °F 40.2 °F 29.91 in South 10.0 mph 15.0 mph 92 % 0.00 in 102.00 W/m2
14:47 42.3 °F 40.2 °F 29.91 in SE 10.0 mph 12.0 mph 92 % 0.00 in 88.00 W/m2
14:52 42.3 °F 40.4 °F 29.91 in SSE 13.0 mph 14.0 mph 93 % 0.00 in 76.00 W/m2
14:57 42.3 °F 40.4 °F 29.92 in South 10.0 mph 12.0 mph 93 % 0.00 in 67.00 W/m2
15:02 42.3 °F 40.4 °F 29.91 in South 6.0 mph 12.0 mph 93 % 0.00 in 70.00 W/m2
15:07 42.4 °F 40.5 °F 29.91 in SSW 10.0 mph 13.0 mph 93 % 0.00 in 84.00 W/m2
15:12 42.4 °F 40.5 °F 29.91 in SSE 9.0 mph 11.0 mph 93 % 0.07 in 98.00 W/m2
15:17 42.4 °F 40.5 °F 29.91 in South 4.0 mph 9.0 mph 93 % 0.07 in 77.00 W/m2
15:22 42.4 °F 40.5 °F 29.92 in South 11.0 mph 12.0 mph 93 % 0.05 in 56.00 W/m2
15:27 42.4 °F 40.5 °F 29.92 in South 6.0 mph 11.0 mph 93 % 0.05 in 53.00 W/m2
15:32 42.4 °F 40.5 °F 29.92 in Calm   1.0 mph 93 % 0.05 in 30.00 W/m2
15:33 42.4 °F 40.5 °F 29.92 in South 6.0 mph 9.0 mph 93 % 0.05 in 28.00 W/m2
15:38 42.4 °F 40.5 °F 29.92 in SSE 6.0 mph 11.0 mph 93 % 0.05 in 32.00 W/m2
15:43 42.4 °F 40.5 °F 29.92 in SSW 5.0 mph 12.0 mph 93 % 0.05 in 47.00 W/m2
15:48 42.3 °F 40.4 °F 29.92 in South 4.0 mph 9.0 mph 93 % 0.04 in 39.00 W/m2
15:53 42.3 °F 40.4 °F 29.92 in South 9.0 mph 9.0 mph 93 % 0.04 in 32.00 W/m2
15:58 42.3 °F 40.4 °F 29.91 in South 4.0 mph 11.0 mph 93 % 0.04 in 56.00 W/m2
16:03 42.4 °F 40.5 °F 29.91 in SSE 7.0 mph 13.0 mph 93 % 0.00 in 67.00 W/m2
16:08 42.4 °F 40.5 °F 29.92 in SSE 7.0 mph 9.0 mph 93 % 0.00 in 58.00 W/m2
16:13 42.5 °F 40.6 °F 29.92 in SSE 8.0 mph 10.0 mph 93 % 0.00 in 19.00 W/m2
16:19 42.5 °F 40.9 °F 29.92 in South 9.0 mph 12.0 mph 94 % 0.00 in 28.00 W/m2
16:24 42.5 °F 40.6 °F 29.92 in SSE 4.0 mph 10.0 mph 93 % 0.00 in 33.00 W/m2
16:29 42.6 °F 40.7 °F 29.92 in SSE 11.0 mph 13.0 mph 93 % 0.00 in 19.00 W/m2
16:34 42.6 °F 40.7 °F 29.91 in SSE 4.0 mph 14.0 mph 93 % 0.00 in 14.00 W/m2
16:39 42.7 °F 40.8 °F 29.92 in South 7.0 mph 15.0 mph 93 % 0.00 in 14.00 W/m2
16:44 42.7 °F 40.8 °F 29.92 in SSE 9.0 mph 13.0 mph 93 % 0.00 in 9.00 W/m2
16:49 42.7 °F 40.8 °F 29.92 in SSE 6.0 mph 12.0 mph 93 % 0.00 in 7.00 W/m2
16:54 42.7 °F 40.8 °F 29.92 in SSE 12.0 mph 13.0 mph 93 % 0.09 in 12.00 W/m2
16:59 42.7 °F 40.8 °F 29.92 in SSE 7.0 mph 14.0 mph 93 % 0.08 in 12.00 W/m2
17:04 42.7 °F 40.8 °F 29.92 in SSE 11.0 mph 13.0 mph 93 % 0.05 in 7.00 W/m2
17:09 42.7 °F 40.8 °F 29.92 in SSE 10.0 mph 10.0 mph 93 % 0.00 in 5.00 W/m2
17:14 42.8 °F 40.9 °F 29.92 in South 10.0 mph 13.0 mph 93 % 0.00 in 7.00 W/m2
17:19 42.8 °F 40.9 °F 29.92 in SSE 15.0 mph 15.0 mph 93 % 0.00 in 5.00 W/m2
17:24 42.8 °F 40.9 °F 29.93 in South 16.0 mph 16.0 mph 93 % 0.00 in 5.00 W/m2
17:29 42.9 °F 41.0 °F 29.93 in SSE 6.0 mph 13.0 mph 93 % 0.00 in 0.00 W/m2
17:34 42.9 °F 41.0 °F 29.93 in South 7.0 mph 12.0 mph 93 % 0.00 in 0.00 W/m2
17:39 43.0 °F 41.1 °F 29.93 in SSE 9.0 mph 10.0 mph 93 % 0.00 in 0.00 W/m2
17:44 43.0 °F 41.1 °F 29.93 in SSE 8.0 mph 14.0 mph 93 % 0.00 in 0.00 W/m2
17:49 43.0 °F 41.1 °F 29.94 in SSE 8.0 mph 12.0 mph 93 % 0.00 in 0.00 W/m2
17:54 43.1 °F 41.2 °F 29.94 in SSE 13.0 mph 13.0 mph 93 % 0.00 in 0.00 W/m2
17:59 43.1 °F 41.2 °F 29.93 in South 10.0 mph 17.0 mph 93 % 0.00 in 0.00 W/m2
18:04 43.2 °F 41.3 °F 29.94 in SE 5.0 mph 18.0 mph 93 % 0.00 in 0.00 W/m2
18:09 43.2 °F 41.3 °F 29.94 in SE 9.0 mph 15.0 mph 93 % 0.00 in 0.00 W/m2
18:14 43.3 °F 41.4 °F 29.94 in SSE 9.0 mph 13.0 mph 93 % 0.00 in 0.00 W/m2
18:19 43.3 °F 41.4 °F 29.94 in SSE 7.0 mph 13.0 mph 93 % 0.00 in 0.00 W/m2
18:24 43.4 °F 41.5 °F 29.95 in SSE 10.0 mph 14.0 mph 93 % 0.00 in 0.00 W/m2
18:29 43.4 °F 41.5 °F 29.95 in South 9.0 mph 17.0 mph 93 % 0.00 in 0.00 W/m2
18:34 43.4 °F 41.5 °F 29.95 in SSE 12.0 mph 14.0 mph 93 % 0.00 in 0.00 W/m2
18:39 43.5 °F 41.6 °F 29.96 in South 9.0 mph 15.0 mph 93 % 0.00 in 0.00 W/m2
18:44 43.5 °F 41.6 °F 29.95 in Calm   12.0 mph 93 % 0.00 in 0.00 W/m2
18:49 43.6 °F 41.7 °F 29.95 in SE 9.0 mph 14.0 mph 93 % 0.00 in 0.00 W/m2
18:54 43.6 °F 41.7 °F 29.96 in South 9.0 mph 15.0 mph 93 % 0.00 in 0.00 W/m2
18:59 43.7 °F 41.8 °F 29.96 in South 9.0 mph 19.0 mph 93 % 0.00 in 0.00 W/m2
19:04 43.7 °F 41.8 °F 29.96 in South 7.0 mph 18.0 mph 93 % 0.00 in 0.00 W/m2
19:09 43.7 °F 41.8 °F 29.96 in SSE 8.0 mph 20.0 mph 93 % 0.00 in 0.00 W/m2
19:14 43.8 °F 41.9 °F 29.96 in SSE 9.0 mph 17.0 mph 93 % 0.00 in 0.00 W/m2
19:19 43.8 °F 41.9 °F 29.96 in South 4.0 mph 15.0 mph 93 % 0.00 in 0.00 W/m2
19:24 43.9 °F 42.0 °F 29.96 in SE 12.0 mph 16.0 mph 93 % 0.00 in 0.00 W/m2
19:29 43.9 °F 42.0 °F 29.96 in SSE 13.0 mph 14.0 mph 93 % 0.00 in 0.00 W/m2
19:34 44.0 °F 42.1 °F 29.97 in South 13.0 mph 20.0 mph 93 % 0.00 in 0.00 W/m2
19:39 44.0 °F 42.1 °F 29.97 in SE 11.0 mph 18.0 mph 93 % 0.00 in 0.00 W/m2
19:44 44.0 °F 42.1 °F 29.97 in SSE 11.0 mph 13.0 mph 93 % 0.00 in 0.00 W/m2
19:49 44.1 °F 42.2 °F 29.98 in South 8.0 mph 19.0 mph 93 % 0.00 in 0.00 W/m2
19:54 44.1 °F 42.2 °F 29.98 in SSE 10.0 mph 16.0 mph 93 % 0.00 in 0.00 W/m2
19:59 44.2 °F 42.3 °F 29.99 in South 21.0 mph 22.0 mph 93 % 0.00 in 0.00 W/m2
20:04 44.2 °F 42.3 °F 29.99 in SSE 12.0 mph 15.0 mph 93 % 0.00 in 0.00 W/m2
20:09 44.2 °F 42.3 °F 29.99 in SSE 9.0 mph 17.0 mph 93 % 0.00 in 0.00 W/m2
20:14 44.3 °F 42.4 °F 29.98 in South 6.0 mph 16.0 mph 93 % 0.00 in 0.00 W/m2
20:19 44.3 °F 42.4 °F 29.98 in SE 10.0 mph 19.0 mph 93 % 0.00 in 0.00 W/m2
20:24 44.3 °F 42.4 °F 29.99 in SSE 12.0 mph 16.0 mph 93 % 0.00 in 0.00 W/m2
20:29 44.4 °F 42.5 °F 29.99 in South 10.0 mph 18.0 mph 93 % 0.00 in 0.00 W/m2
20:34 44.4 °F 42.5 °F 29.99 in South 14.0 mph 22.0 mph 93 % 0.00 in 0.00 W/m2
20:39 44.5 °F 42.6 °F 29.99 in SSE 8.0 mph 14.0 mph 93 % 0.00 in 0.00 W/m2
20:44 44.5 °F 42.6 °F 29.99 in SSE 8.0 mph 15.0 mph 93 % 0.00 in 0.00 W/m2
20:49 44.6 °F 42.7 °F 29.99 in South 14.0 mph 20.0 mph 93 % 0.00 in 0.00 W/m2
20:54 44.6 °F 42.7 °F 30.00 in SSE 4.0 mph 12.0 mph 93 % 0.00 in 0.00 W/m2
20:59 44.6 °F 42.7 °F 29.99 in SE 10.0 mph 18.0 mph 93 % 0.00 in 0.00 W/m2
21:04 44.7 °F 42.8 °F 29.99 in SSE 11.0 mph 17.0 mph 93 % 0.00 in 0.00 W/m2
21:09 44.7 °F 42.8 °F 30.00 in SE 10.0 mph 14.0 mph 93 % 0.00 in 0.00 W/m2
21:14 44.8 °F 42.9 °F 29.98 in SE 15.0 mph 20.0 mph 93 % 0.00 in 0.00 W/m2
21:19 44.8 °F 42.9 °F 29.99 in SE 2.0 mph 16.0 mph 93 % 0.00 in 0.00 W/m2
21:24 44.9 °F 43.0 °F 29.99 in SSE 17.0 mph 22.0 mph 93 % 0.00 in 0.00 W/m2
21:29 44.9 °F 43.0 °F 29.99 in South 9.0 mph 15.0 mph 93 % 0.00 in 0.00 W/m2
21:34 45.0 °F 43.1 °F 29.98 in South 9.0 mph 17.0 mph 93 % 0.00 in 0.00 W/m2
21:39 45.0 °F 43.1 °F 29.98 in SSE 7.0 mph 20.0 mph 93 % 0.00 in 0.00 W/m2
21:44 45.0 °F 43.1 °F 29.99 in SSW 7.0 mph 17.0 mph 93 % 0.00 in 0.00 W/m2
21:49 45.0 °F 43.1 °F 29.99 in SSE 12.0 mph 19.0 mph 93 % 0.00 in 0.00 W/m2
21:54 45.1 °F 43.2 °F 29.99 in SSE 11.0 mph 19.0 mph 93 % 0.00 in 0.00 W/m2
21:59 45.1 °F 43.2 °F 29.99 in South 15.0 mph 21.0 mph 93 % 0.00 in 0.00 W/m2
22:04 45.2 °F 43.6 °F 30.00 in South 14.0 mph 20.0 mph 94 % 0.00 in 0.00 W/m2
22:09 45.2 °F 43.6 °F 30.00 in SE 28.0 mph 28.0 mph 94 % 0.00 in 0.00 W/m2
22:14 45.3 °F 43.7 °F 30.00 in SSE 9.0 mph 17.0 mph 94 % 0.00 in 0.00 W/m2
22:19 45.3 °F 43.7 °F 30.00 in SSE 9.0 mph 20.0 mph 94 % 0.00 in 0.00 W/m2
22:24 45.4 °F 43.8 °F 30.00 in ESE 8.0 mph 18.0 mph 94 % 0.00 in 0.00 W/m2
22:29 45.4 °F 43.8 °F 30.00 in SSE 12.0 mph 19.0 mph 94 % 0.00 in 0.00 W/m2
22:34 45.4 °F 43.8 °F 30.00 in SSE 11.0 mph 17.0 mph 94 % 0.00 in 0.00 W/m2
22:39 45.4 °F 43.8 °F 30.01 in SSE 11.0 mph 14.0 mph 94 % 0.00 in 0.00 W/m2
22:44 45.4 °F 43.8 °F 30.01 in South 4.0 mph 16.0 mph 94 % 0.00 in 0.00 W/m2
22:49 45.5 °F 43.9 °F 30.01 in SSE 8.0 mph 23.0 mph 94 % 0.00 in 0.00 W/m2
22:54 45.5 °F 43.9 °F 30.00 in SE 12.0 mph 22.0 mph 94 % 0.00 in 0.00 W/m2
22:59 45.5 °F 43.6 °F 30.00 in South 12.0 mph 24.0 mph 93 % 0.00 in 0.00 W/m2
23:04 45.5 °F 43.6 °F 30.00 in SSE 10.0 mph 20.0 mph 93 % 0.00 in 0.00 W/m2
23:09 45.6 °F 43.7 °F 30.01 in SSE 6.0 mph 19.0 mph 93 % 0.00 in 0.00 W/m2
23:14 45.6 °F 43.7 °F 30.01 in South 8.0 mph 18.0 mph 93 % 0.00 in 0.00 W/m2
23:19 45.6 °F 43.7 °F 30.00 in SSE 8.0 mph 18.0 mph 93 % 0.00 in 0.00 W/m2
23:24 45.6 °F 43.7 °F 30.00 in SSE 11.0 mph 21.0 mph 93 % 0.00 in 0.00 W/m2
23:29 45.6 °F 43.7 °F 29.99 in SSE 16.0 mph 21.0 mph 93 % 0.00 in 0.00 W/m2
23:34 45.6 °F 43.7 °F 29.99 in ESE 5.0 mph 24.0 mph 93 % 0.00 in 0.00 W/m2
23:39 45.6 °F 43.7 °F 29.98 in SSE 6.0 mph 20.0 mph 93 % 0.00 in 0.00 W/m2
23:44 45.6 °F 43.7 °F 29.99 in SSE 23.0 mph 25.0 mph 93 % 0.00 in 0.00 W/m2
23:49 45.6 °F 43.7 °F 29.98 in South 3.0 mph 20.0 mph 93 % 0.00 in 0.00 W/m2
23:54 45.6 °F 43.7 °F 29.97 in SE 17.0 mph 25.0 mph 93 % 0.00 in 0.00 W/m2
23:59 45.6 °F 43.7 °F 29.96 in SE 20.0 mph 24.0 mph 93 % 0.00 in 0.00 W/m2
Juneau County Weather
Compliments of Weather Underground - 4.5 mb
 WU-history PHP script courtesy of   Juneau County Weather.
powered by Cumulus v1.9.3 (1059)
Ambient Weather VWS v14.00
Top Contact Website Map Copyright © 2007 - 2018 Foresthillweather.com Never base important decisions on this or any weather information obtained from the Internet